DW8835 La Escala ES current weather conditions

sailwx.info

Wind from 205 at 3 knots gusting 6

Air temperature 17.2° C
Dewpoint 13.9° C

Last reported at 2015-May-28 23:48 UTC.
Time now 2015-May-29 00:10 UTC

Location: N 42°07' E 003°08'.
View on Google Maps.

See reports from other nearby stations

  
Tides and Currents Weather Stations Pressure Air Temp Water Temp Dewpoint Dewpoint Depression Visibility Wind Speed Wind Dir Waves Ship Positions
date/time (UTC)wind fromknots sea level pressurealtimeterstation pressurevisibilityair tempwater tempwave heightnotes
2015-May-28 23:48 205 3 gusting 6 17.2
2015-May-28 23:38 216 3 gusting 6 17.2
2015-May-28 23:19 217 2 gusting 6 17.8
2015-May-28 22:39 215 2 gusting 5 17.8
2015-May-28 22:09 213 0 gusting 5 18.3
2015-May-28 21:59 202 2 gusting 5 18.3
2015-May-28 21:28 242 2 gusting 5 18.9
2015-May-28 21:19 214 2 gusting 6 18.9
2015-May-28 21:08 236 2 gusting 6 18.9
2015-May-28 20:49 237 4 gusting 6 19.4
2015-May-28 20:39 232 3 gusting 6 19.4
2015-May-28 20:28 221 3 gusting 6 20.0
2015-May-28 19:58 207 2 gusting 6 20.6
2015-May-28 19:29 202 2 gusting 7 21.7
2015-May-28 18:58 191 3 gusting 9 22.8
2015-May-28 18:39 225 4 gusting 6 23.3
2015-May-28 17:28 172 5 gusting 10 24.4
2015-May-28 17:09 169 5 gusting 8 25.0
2015-May-28 16:58 154 6 gusting 9 25.0
2015-May-28 16:19 196 5 gusting 10 25.6
2015-May-28 15:59 194 6 gusting 9 25.6
2015-May-28 14:29 152 5 gusting 11 25.6
2015-May-28 14:19 163 6 gusting 13 25.0
2015-May-28 14:08 161 8 gusting 13 25.0
2015-May-28 13:59 173 6 gusting 11 25.0
2015-May-28 13:38 148 6 gusting 11 25.0
2015-May-28 13:28 132 5 gusting 10 23.9
2015-May-28 12:48 165 4 gusting 11 24.4
2015-May-28 12:38 115 4 gusting 13 23.9
2015-May-28 12:28 125 7 gusting 12 24.4
2015-May-28 11:58 109 6 gusting 9 23.9
2015-May-28 11:49 101 6 gusting 11 23.9
2015-May-28 11:39 150 3 gusting 9 24.4
2015-May-28 11:29 109 4 gusting 9 23.9
2015-May-28 11:08 148 5 gusting 12 23.9
2015-May-28 10:38 134 2 gusting 7 23.9
2015-May-28 10:29 121 2 gusting 8 23.9
2015-May-28 10:18 157 4 gusting 10 23.9
2015-May-28 09:48 107 4 gusting 7 23.3
2015-May-28 09:39 119 5 gusting 7 22.8
2015-May-28 09:08 088 4 gusting 6 22.2
2015-May-28 08:59 096 3 gusting 6 22.2
2015-May-28 08:48 111 2 gusting 4 22.8
2015-May-28 08:18 277 1 gusting 3 22.2
2015-May-28 07:59 279 21.1
2015-May-28 07:28 186 1 gusting 3 20.0
2015-May-28 06:58 177 0 gusting 2 17.8
2015-May-28 06:48 177 1 gusting 4 17.2
2015-May-28 06:29 192 3 gusting 6 16.1
2015-May-28 06:18 196 3 gusting 6 16.1
2015-May-28 05:38 215 2 gusting 5 13.9
2015-May-28 05:28 209 0 gusting 5 13.3
2015-May-28 04:58 202 3 gusting 6 13.3
2015-May-28 04:18 180 2 gusting 6 13.3
2015-May-28 04:08 204 3 gusting 5 13.3
2015-May-28 03:28 188 0 gusting 2 13.3
2015-May-28 02:59 192 0 gusting 3 13.3
2015-May-28 02:48 192 0 gusting 4 13.3
2015-May-28 02:38 190 1 gusting 4 13.3
2015-May-28 01:48 209 1 gusting 5 14.4
2015-May-28 01:29 181 2 gusting 5 14.4
2015-May-28 01:18 177 2 gusting 6 14.4
2015-May-27 23:59 227 2 gusting 6 15.6
2015-May-27 23:48 205 2 gusting 6 15.6
2015-May-27 23:19 242 3 gusting 6 16.1
2015-May-27 23:08 250 2 gusting 5 16.1
2015-May-27 22:58 240 3 gusting 5 16.7
2015-May-27 22:38 215 2 gusting 4 16.7
2015-May-27 22:28 239 2 gusting 6 17.2
2015-May-27 21:59 351 1 gusting 4 17.8
2015-May-27 20:28 331 6 gusting 10 20.6
2015-May-27 19:39 039 2 gusting 5 20.6
2015-May-27 19:28 035 1 gusting 6 21.1
2015-May-27 19:18 061 2 gusting 6 21.7
2015-May-27 18:08 202 4 gusting 6 23.3
2015-May-27 17:49 183 6 gusting 9 23.9
2015-May-27 17:28 199 3 gusting 6 24.4
2015-May-27 17:19 276 5 gusting 8 24.4
2015-May-27 17:09 207 3 gusting 7 23.9
2015-May-27 16:58 201 5 gusting 9 24.4
2015-May-27 16:48 198 5 gusting 8 23.9
2015-May-27 16:38 183 3 gusting 7 23.9
2015-May-27 16:08 189 4 gusting 9 24.4
2015-May-27 15:58 169 4 gusting 6 24.4
2015-May-27 15:49 279 4 gusting 9 25.0
2015-May-27 15:39 180 4 gusting 11 24.4
2015-May-27 15:18 191 6 gusting 14 24.4
2015-May-27 14:48 242 3 gusting 8 24.4
2015-May-27 14:39 132 6 gusting 10 25.0
2015-May-27 14:28 071 3 gusting 7 24.4
2015-May-27 13:48 070 2 gusting 9 24.4
2015-May-27 13:08 099 2 gusting 5 23.3
2015-May-27 12:58 115 2 gusting 6 23.3
2015-May-27 12:18 055 4 gusting 10 23.9
2015-May-27 11:58 044 5 gusting 10 23.9
2015-May-27 11:28 065 1 gusting 11 23.3
2015-May-27 11:18 078 2 gusting 9 23.3
2015-May-27 11:08 015 4 gusting 9 23.9
2015-May-27 10:58 015 5 gusting 14 23.3
2015-May-27 10:28 009 9 gusting 19 23.3
2015-May-27 10:18 334 10 gusting 24 23.9
2015-May-27 10:09 323 11 gusting 18 23.9
2015-May-27 09:59 036 13 gusting 18 23.3
2015-May-27 09:48 323 13 gusting 23 23.3
2015-May-27 09:18 333 7 gusting 15 22.2
2015-May-27 08:48 338 10 gusting 19 21.7
2015-May-27 08:38 324 11 gusting 19 21.1
2015-May-27 08:18 005 13 gusting 22 20.6
2015-May-27 07:18 265 11 gusting 19 19.4
2015-May-27 07:08 309 13 gusting 19 19.4
2015-May-27 06:59 321 13 gusting 20 19.4
2015-May-27 06:38 355 5 gusting 13 18.3
2015-May-27 06:09 338 6 gusting 11 17.8
2015-May-27 05:18 005 8 gusting 14 17.2
2015-May-27 04:48 315 6 gusting 13 17.2
2015-May-27 04:28 013 7 gusting 14 17.2
2015-May-27 04:08 350 8 gusting 18 17.2
2015-May-27 03:38 350 6 gusting 14 17.8
2015-May-27 03:29 360 6 gusting 13 17.2
2015-May-27 03:18 322 5 gusting 13 17.2
2015-May-27 02:48 005 9 gusting 17 17.8
2015-May-27 02:18 332 7 gusting 21 17.8
2015-May-27 02:08 342 10 gusting 22 17.8